Time;durP1;ratioP1;P1;durP2;ratioP2;P2;SDS_P1;SDS_P2;PMS_P1;PMS_P2;Temp;Humidity;BMP_temperature;BMP_pressure;BME280_temperature;BME280_humidity;BME280_pressure;Samples;Min_cycle;Max_cycle;Signal;HPM_P1;HPM_P2
2022/09/26 00:01:26;;;;;;;2.65;2.00;;;;;;;;;;4993902;28;20030;-84
2022/09/26 00:03:53;;;;;;;3.60;2.38;;;;;;;;;;4985232;28;20397;-84
2022/09/26 00:06:18;;;;;;;2.63;1.92;;;;;;;;;;5001458;28;20062;-85
2022/09/26 00:08:44;;;;;;;3.15;2.00;;;;;;;;;;4985288;28;20046;-85
2022/09/26 00:11:10;;;;;;;2.85;1.95;;;;;;;;;;5001309;28;20116;-85
2022/09/26 00:13:36;;;;;;;;;;;;;;;;;;4985639;28;20049;-85
2022/09/26 00:16:02;;;;;;;2.78;1.90;;;;;;;;;;5000403;28;19959;-84
2022/09/26 00:18:27;;;;;;;;;;;;;;;;;;5001432;28;20048;-85
2022/09/26 00:20:53;;;;;;;3.20;2.22;;;;;;;;;;5018313;28;20353;-84
2022/09/26 00:23:18;;;;;;;;;;;;;;;;;;5019230;28;20438;-85
2022/09/26 00:25:47;;;;;;;3.42;2.38;;;;;;;;;;4992274;28;20403;-84
2022/09/26 00:28:13;;;;;;;4.68;2.20;;;;;;;;;;4981364;28;20061;-84
2022/09/26 00:30:38;;;;;;;4.10;2.40;;;;;;;;;;5016853;28;20035;-84
2022/09/26 00:33:04;;;;;;;;;;;;;;;;;;4983776;28;20501;-84
2022/09/26 00:35:29;;;;;;;2.88;1.90;;;;;;;;;;4986385;28;19917;-84
2022/09/26 00:37:55;;;;;;;3.70;2.03;;;;;;;;;;4994463;28;20468;-85
2022/09/26 00:40:25;;;;;;;6.57;2.63;;;;;;;;;;5012525;28;20037;-83
2022/09/26 00:42:50;;;;;;;4.63;2.30;;;;;;;;;;4997148;28;20045;-84
2022/09/26 00:45:16;;;;;;;3.13;2.13;;;;;;;;;;5019287;28;20108;-85
2022/09/26 00:47:45;;;;;;;3.20;2.20;;;;;;;;;;4999859;28;20049;-84
2022/09/26 00:50:14;;;;;;;4.32;2.60;;;;;;;;;;5001009;28;20028;-84
2022/09/26 00:52:48;;;;;;;3.60;2.35;;;;;;;;;;5019314;28;20042;-84
2022/09/26 00:55:14;;;;;;;3.40;2.20;;;;;;;;;;5012825;28;20115;-84
2022/09/26 00:57:45;;;;;;;3.78;2.45;;;;;;;;;;4986541;28;20025;-85
2022/09/26 01:00:10;;;;;;;5.40;2.67;;;;;;;;;;5000166;28;20043;-85
2022/09/26 01:02:36;;;;;;;4.57;2.33;;;;;;;;;;5003008;28;20028;-84
2022/09/26 01:05:02;;;;;;;3.65;2.15;;;;;;;;;;4990356;28;20041;-84
2022/09/26 01:07:27;;;;;;;4.53;2.50;;;;;;;;;;5003599;28;20033;-84
2022/09/26 01:09:53;;;;;;;6.22;2.67;;;;;;;;;;4987421;28;20400;-85
2022/09/26 01:12:18;;;;;;;;;;;;;;;;;;5001534;28;20049;-86
2022/09/26 01:14:44;;;;;;;4.43;2.40;;;;;;;;;;4998752;28;19924;-85
2022/09/26 01:17:09;;;;;;;4.22;2.65;;;;;;;;;;4988776;28;20054;-85
2022/09/26 01:19:38;;;;;;;4.10;2.75;;;;;;;;;;4984002;28;20038;-84
2022/09/26 01:22:07;;;;;;;4.65;2.55;;;;;;;;;;4988546;28;20056;-85
2022/09/26 01:24:32;;;;;;;6.18;2.50;;;;;;;;;;5020913;28;20042;-84
2022/09/26 01:27:22;;;;;;;4.63;2.55;;;;;;;;;;5021831;28;20472;-84
2022/09/26 01:30:03;;;;;;;3.83;2.22;;;;;;;;;;4998449;28;20072;-84
2022/09/26 01:32:47;;;;;;;3.75;2.47;;;;;;;;;;4995953;28;20041;-84
2022/09/26 01:35:25;;;;;;;5.50;2.83;;;;;;;;;;5006149;28;20117;-86
2022/09/26 01:37:58;;;;;;;4.25;2.60;;;;;;;;;;4997352;28;20034;-84
2022/09/26 01:40:31;;;;;;;3.67;2.33;;;;;;;;;;5003656;28;20030;-84
2022/09/26 01:43:18;;;;;;;5.88;2.38;;;;;;;;;;5004343;28;20030;-85
2022/09/26 01:45:47;;;;;;;4.50;2.47;;;;;;;;;;5005109;28;20064;-85
2022/09/26 01:48:17;;;;;;;4.72;2.65;;;;;;;;;;5003572;28;20026;-85
2022/09/26 01:50:51;;;;;;;4.25;2.63;;;;;;;;;;4990144;28;20060;-85
2022/09/26 01:53:18;;;;;;;4.45;2.78;;;;;;;;;;4993140;28;20093;-85
2022/09/26 01:55:48;;;;;;;4.95;2.60;;;;;;;;;;4987999;28;20173;-86
2022/09/26 01:58:18;;;;;;;3.85;2.55;;;;;;;;;;4974772;28;20037;-85
2022/09/26 02:00:45;;;;;;;4.35;2.60;;;;;;;;;;4987126;28;20030;-86
2022/09/26 02:03:10;;;;;;;;;;;;;;;;;;4971756;28;20058;-85
2022/09/26 02:05:37;;;;;;;4.47;2.50;;;;;;;;;;4996678;28;20381;-85
2022/09/26 02:08:06;;;;;;;4.45;2.70;;;;;;;;;;4979052;28;20026;-84
2022/09/26 02:10:37;;;;;;;3.78;2.40;;;;;;;;;;5005134;28;20448;-85
2022/09/26 02:13:10;;;;;;;4.45;2.33;;;;;;;;;;4991655;28;20433;-84
2022/09/26 02:15:36;;;;;;;6.43;2.50;;;;;;;;;;5013268;28;20126;-85
2022/09/26 02:18:09;;;;;;;4.85;2.58;;;;;;;;;;5021509;28;20032;-84
2022/09/26 02:20:36;;;;;;;3.95;2.65;;;;;;;;;;4993786;28;20037;-84
2022/09/26 02:23:02;;;;;;;3.55;2.22;;;;;;;;;;4983316;28;20034;-85
2022/09/26 02:25:28;;;;;;;4.72;2.40;;;;;;;;;;5007252;28;20386;-86
2022/09/26 02:27:54;;;;;;;5.45;2.38;;;;;;;;;;4991683;28;20032;-85
2022/09/26 02:30:20;;;;;;;4.95;2.13;;;;;;;;;;4998508;28;20149;-83
2022/09/26 02:32:45;;;;;;;;;;;;;;;;;;4994874;28;20050;-84
2022/09/26 02:37:56;;;;;;;5.15;2.33;;;;;;;;;;4983462;28;20034;-84
2022/09/26 02:40:23;;;;;;;5.38;2.55;;;;;;;;;;5022663;28;20037;-84
2022/09/26 02:42:52;;;;;;;3.63;2.30;;;;;;;;;;4987009;28;20038;-84
2022/09/26 02:45:21;;;;;;;4.50;2.03;;;;;;;;;;5001178;28;20030;-83
2022/09/26 02:47:53;;;;;;;6.65;2.70;;;;;;;;;;5002061;28;20052;-84
2022/09/26 02:50:46;;;;;;;4.75;2.60;;;;;;;;;;4995813;28;20053;-85
2022/09/26 02:53:13;;;;;;;4.20;2.28;;;;;;;;;;4984283;28;20034;-83
2022/09/26 02:55:50;;;;;;;4.95;2.60;;;;;;;;;;4997943;28;20033;-84
2022/09/26 02:58:21;;;;;;;4.28;2.30;;;;;;;;;;5006177;28;20052;-83
2022/09/26 03:00:52;;;;;;;4.13;2.08;;;;;;;;;;4989229;28;20046;-84
2022/09/26 03:03:18;;;;;;;4.18;2.33;;;;;;;;;;5003949;28;20042;-85
2022/09/26 03:05:44;;;;;;;4.95;2.35;;;;;;;;;;4985424;28;20029;-85
2022/09/26 03:08:14;;;;;;;4.70;2.10;;;;;;;;;;5002628;28;20061;-84
2022/09/26 03:10:40;;;;;;;5.90;2.08;;;;;;;;;;5003044;28;20117;-84
2022/09/26 03:13:07;;;;;;;5.22;2.40;;;;;;;;;;4964129;28;20494;-83
2022/09/26 03:15:33;;;;;;;7.85;2.60;;;;;;;;;;4977642;28;20049;-84
2022/09/26 03:17:58;;;;;;;4.97;2.70;;;;;;;;;;4975043;28;20030;-86
2022/09/26 03:20:25;;;;;;;8.95;2.45;;;;;;;;;;4980530;28;20034;-84
2022/09/26 03:22:53;;;;;;;7.38;2.50;;;;;;;;;;4956969;28;20039;-85
2022/09/26 03:25:20;;;;;;;5.43;2.70;;;;;;;;;;4964863;28;20048;-85
2022/09/26 03:28:01;;;;;;;6.63;2.45;;;;;;;;;;4961499;28;20493;-86
2022/09/26 03:30:27;;;;;;;6.25;2.80;;;;;;;;;;4970015;28;20030;-84
2022/09/26 03:33:12;;;;;;;4.53;2.40;;;;;;;;;;4975376;28;20125;-85
2022/09/26 03:35:38;;;;;;;;;;;;;;;;;;4986865;28;20058;-84
2022/09/26 03:38:03;;;;;;;6.65;2.88;;;;;;;;;;4994997;28;19920;-84
2022/09/26 03:40:34;;;;;;;7.68;2.90;;;;;;;;;;4984544;28;20035;-85
2022/09/26 03:43:30;;;;;;;3.80;2.60;;;;;;;;;;4939968;28;20051;-86
2022/09/26 03:45:56;;;;;;;5.30;2.92;;;;;;;;;;4978657;28;20064;-83
2022/09/26 03:48:25;;;;;;;4.47;2.58;;;;;;;;;;4968021;28;20030;-85
2022/09/26 03:50:51;;;;;;;;;;;;;;;;;;4991803;28;20465;-85
2022/09/26 03:53:16;;;;;;;5.13;2.53;;;;;;;;;;4983013;28;19909;-86
2022/09/26 03:55:42;;;;;;;4.68;3.05;;;;;;;;;;4958245;28;20042;-85
2022/09/26 03:58:08;;;;;;;5.20;2.70;;;;;;;;;;4957191;28;20496;-86
2022/09/26 04:00:37;;;;;;;3.42;2.55;;;;;;;;;;4982046;28;20038;-85
2022/09/26 04:03:04;;;;;;;4.05;2.55;;;;;;;;;;4981021;28;20118;-84
2022/09/26 04:05:35;;;;;;;4.25;2.58;;;;;;;;;;4958654;28;20038;-85
2022/09/26 04:08:01;;;;;;;3.75;2.72;;;;;;;;;;4956254;28;20449;-84
2022/09/26 04:10:28;;;;;;;3.35;2.40;;;;;;;;;;4958130;28;20090;-84
2022/09/26 04:12:55;;;;;;;3.90;2.70;;;;;;;;;;4966257;28;20062;-84
2022/09/26 04:15:22;;;;;;;3.70;2.63;;;;;;;;;;5000372;28;20034;-83
2022/09/26 04:17:52;;;;;;;5.03;2.80;;;;;;;;;;4978136;28;20069;-84
2022/09/26 04:20:19;;;;;;;3.28;2.40;;;;;;;;;;4982629;28;20481;-84
2022/09/26 04:22:45;;;;;;;4.90;2.55;;;;;;;;;;4971118;28;20034;-83
2022/09/26 04:25:11;;;;;;;3.67;2.70;;;;;;;;;;4980775;28;20037;-84
2022/09/26 04:27:37;;;;;;;4.30;2.83;;;;;;;;;;4961062;28;20031;-84
2022/09/26 04:30:03;;;;;;;4.60;3.03;;;;;;;;;;4951544;28;20026;-85
2022/09/26 04:32:35;;;;;;;4.43;3.33;;;;;;;;;;4980624;28;20137;-85
2022/09/26 04:35:19;;;;;;;6.57;3.25;;;;;;;;;;4982418;28;20045;-85
2022/09/26 04:37:46;;;;;;;7.55;2.50;;;;;;;;;;4974170;28;20061;-83
2022/09/26 04:40:12;;;;;;;4.78;2.70;;;;;;;;;;4969398;28;20022;-85
2022/09/26 04:42:55;;;;;;;4.10;2.55;;;;;;;;;;4966064;28;20066;-84
2022/09/26 04:45:21;;;;;;;;;;;;;;;;;;4952113;28;20043;-85
2022/09/26 04:47:46;;;;;;;3.63;2.33;;;;;;;;;;4989853;28;20261;-84
2022/09/26 04:50:32;;;;;;;5.13;2.60;;;;;;;;;;4990450;28;20046;-84
2022/09/26 04:53:05;;;;;;;4.30;2.55;;;;;;;;;;4999725;28;20473;-83
2022/09/26 04:55:34;;;;;;;3.95;2.70;;;;;;;;;;4975039;28;20072;-83
2022/09/26 04:58:01;;;;;;;3.95;2.33;;;;;;;;;;4977190;28;20478;-85
2022/09/26 05:00:28;;;;;;;3.78;2.25;;;;;;;;;;4968308;28;20069;-85
2022/09/26 05:02:59;;;;;;;4.22;2.42;;;;;;;;;;4980031;28;20482;-85
2022/09/26 05:05:30;;;;;;;3.28;2.28;;;;;;;;;;4976336;28;20081;-81
2022/09/26 05:07:56;;;;;;;3.83;2.50;;;;;;;;;;4964833;28;20042;-83
2022/09/26 05:10:23;;;;;;;5.95;2.58;;;;;;;;;;4977216;28;20054;-85
2022/09/26 05:12:53;;;;;;;3.55;2.33;;;;;;;;;;4956793;28;20054;-84
2022/09/26 05:15:20;;;;;;;3.45;2.10;;;;;;;;;;4970820;28;20037;-85
2022/09/26 05:17:46;;;;;;;3.80;1.92;;;;;;;;;;4978393;28;20046;-86
2022/09/26 05:20:13;;;;;;;5.20;2.45;;;;;;;;;;4978096;28;20015;-84
2022/09/26 05:22:45;;;;;;;4.00;2.33;;;;;;;;;;4985475;28;20041;-85
2022/09/26 05:27:55;;;;;;;5.70;2.70;;;;;;;;;;4978777;28;20041;-85
2022/09/26 05:30:20;;;;;;;3.25;2.35;;;;;;;;;;4970426;28;20027;-84
2022/09/26 05:32:47;;;;;;;2.95;2.00;;;;;;;;;;4941328;28;20062;-84
2022/09/26 05:35:14;;;;;;;3.03;2.22;;;;;;;;;;4966163;28;20086;-84
2022/09/26 05:37:41;;;;;;;4.75;2.10;;;;;;;;;;4964985;28;20111;-85
2022/09/26 05:42:58;;;;;;;4.75;2.42;;;;;;;;;;4979883;28;20046;-83
2022/09/26 05:45:23;;;;;;;3.60;2.30;;;;;;;;;;4968405;28;20125;-85
2022/09/26 05:47:49;;;;;;;5.15;2.63;;;;;;;;;;4968987;28;20035;-86
2022/09/26 05:50:15;;;;;;;3.60;2.30;;;;;;;;;;4963988;28;20399;-84
2022/09/26 05:52:41;;;;;;;5.35;2.88;;;;;;;;;;4976409;28;20027;-85
2022/09/26 05:55:13;;;;;;;5.43;2.55;;;;;;;;;;4971646;28;20120;-84
2022/09/26 05:57:57;;;;;;;4.07;2.58;;;;;;;;;;4976919;28;20049;-85
2022/09/26 06:00:28;;;;;;;4.82;2.92;;;;;;;;;;4967265;28;20026;-84
2022/09/26 06:02:55;;;;;;;3.63;2.17;;;;;;;;;;4965476;28;20056;-86
2022/09/26 06:05:26;;;;;;;4.95;2.25;;;;;;;;;;4969348;28;20022;-84
2022/09/26 06:07:57;;;;;;;4.35;2.65;;;;;;;;;;4969490;28;20035;-85
2022/09/26 06:11:06;;;;;;;6.05;2.88;;;;;;;;;;4957672;28;20043;-84
2022/09/26 06:13:33;;;;;;;4.20;2.42;;;;;;;;;;4979993;28;20429;-85
2022/09/26 06:16:05;;;;;;;3.83;2.40;;;;;;;;;;4964279;28;20022;-87
2022/09/26 06:18:32;;;;;;;4.85;2.72;;;;;;;;;;4975967;28;20042;-85
2022/09/26 06:21:04;;;;;;;4.88;2.85;;;;;;;;;;4966630;28;20058;-84
2022/09/26 06:23:30;;;;;;;5.30;2.40;;;;;;;;;;4955566;28;20026;-83
2022/09/26 06:25:57;;;;;;;4.07;2.60;;;;;;;;;;4941978;28;20054;-86
2022/09/26 06:28:25;;;;;;;3.95;2.45;;;;;;;;;;4966535;28;20038;-84
2022/09/26 06:30:51;;;;;;;4.40;2.70;;;;;;;;;;4992084;28;20061;-85
2022/09/26 06:33:51;;;;;;;5.10;2.60;;;;;;;;;;4986898;28;20035;-84
2022/09/26 06:36:30;;;;;;;5.93;2.28;;;;;;;;;;4983010;28;20418;-85
2022/09/26 06:38:56;;;;;;;5.78;2.58;;;;;;;;;;4984258;28;20031;-84
2022/09/26 06:41:22;;;;;;;;;;;;;;;;;;4987146;28;20022;-85
2022/09/26 06:43:48;;;;;;;4.10;2.40;;;;;;;;;;4981317;28;19925;-83
2022/09/26 06:46:30;;;;;;;5.25;2.55;;;;;;;;;;4965712;28;20047;-84
2022/09/26 06:49:21;;;;;;;5.97;2.88;;;;;;;;;;4986760;28;20046;-84
2022/09/26 06:52:07;;;;;;;6.88;2.80;;;;;;;;;;4974294;28;20038;-83
2022/09/26 06:54:32;;;;;;;5.07;3.08;;;;;;;;;;4974919;28;20119;-84
2022/09/26 06:56:58;;;;;;;;;;;;;;;;;;4967967;28;20038;-85
2022/09/26 06:59:23;;;;;;;4.53;2.60;;;;;;;;;;4986566;28;19913;-85
2022/09/26 07:01:58;;;;;;;5.13;2.90;;;;;;;;;;4965401;28;20082;-83
2022/09/26 07:05:01;;;;;;;5.28;3.15;;;;;;;;;;4939086;29;20040;-85
2022/09/26 07:07:41;;;;;;;5.88;3.10;;;;;;;;;;4968724;28;20089;-86
2022/09/26 07:10:10;;;;;;;5.45;2.97;;;;;;;;;;4985014;28;20038;-84
2022/09/26 07:12:52;;;;;;;5.93;2.83;;;;;;;;;;5007721;28;20069;-85
2022/09/26 07:15:19;;;;;;;4.80;2.90;;;;;;;;;;4973373;28;20184;-84
2022/09/26 07:17:44;;;;;;;;;;;;;;;;;;4971548;28;20026;-84
2022/09/26 07:20:18;;;;;;;4.55;2.80;;;;;;;;;;4991350;28;19913;-87
2022/09/26 07:23:04;;;;;;;4.05;2.78;;;;;;;;;;4973789;28;20137;-84
2022/09/26 07:25:30;;;;;;;6.63;2.97;;;;;;;;;;4972265;28;20030;-84
2022/09/26 07:27:56;;;;;;;4.60;3.35;;;;;;;;;;4968759;28;20034;-85
2022/09/26 07:30:32;;;;;;;5.82;3.10;;;;;;;;;;4978976;28;20065;-84
2022/09/26 07:33:05;;;;;;;8.00;3.35;;;;;;;;;;4965555;28;20018;-85
2022/09/26 07:35:44;;;;;;;5.60;3.08;;;;;;;;;;4963183;28;20042;-84
2022/09/26 07:38:11;;;;;;;4.90;3.30;;;;;;;;;;4973995;28;20033;-85
2022/09/26 07:40:38;;;;;;;6.47;3.50;;;;;;;;;;4976194;28;20161;-84
2022/09/26 07:43:03;;;;;;;5.25;3.40;;;;;;;;;;4979402;28;20504;-84
2022/09/26 07:51:31;;;;;;;6.20;3.70;;;;;;;;;;4947654;28;20038;-84
2022/09/26 07:53:59;;;;;;;4.95;3.08;;;;;;;;;;4972248;28;20049;-85
2022/09/26 07:56:36;;;;;;;5.60;3.05;;;;;;;;;;4974418;28;20031;-85
2022/09/26 07:59:25;;;;;;;5.50;3.40;;;;;;;;;;4969194;28;20041;-84
2022/09/26 08:01:56;;;;;;;4.85;3.20;;;;;;;;;;4948849;28;20085;-84
2022/09/26 08:04:35;;;;;;;6.60;3.57;;;;;;;;;;4976603;28;20456;-85
2022/09/26 08:07:01;;;;;;;4.72;3.00;;;;;;;;;;4969047;28;20034;-85
2022/09/26 08:09:27;;;;;;;;;;;;;;;;;;4984855;28;20018;-84
2022/09/26 08:12:17;;;;;;;4.80;3.22;;;;;;;;;;4986831;28;19941;-83
2022/09/26 08:14:48;;;;;;;5.47;3.03;;;;;;;;;;5014085;28;20034;-88
2022/09/26 08:17:21;;;;;;;3.88;3.17;;;;;;;;;;4986105;28;20121;-87
2022/09/26 08:19:48;;;;;;;5.13;3.10;;;;;;;;;;4998768;28;20034;-84
2022/09/26 08:22:15;;;;;;;4.45;2.90;;;;;;;;;;4990367;28;20029;-85
2022/09/26 08:24:49;;;;;;;;;;;;;;;;;;4999301;28;20038;-85
2022/09/26 08:27:35;;;;;;;4.05;2.50;;;;;;;;;;5030995;28;19920;-85
2022/09/26 08:30:03;;;;;;;;;;;;;;;;;;5009314;28;20029;-83
2022/09/26 08:32:31;;;;;;;5.78;2.90;;;;;;;;;;4992267;28;19972;-86
2022/09/26 08:34:57;;;;;;;6.45;3.10;;;;;;;;;;4993440;28;20049;-84
2022/09/26 08:37:31;;;;;;;4.28;2.60;;;;;;;;;;4993155;28;20026;-86
2022/09/26 08:40:20;;;;;;;5.88;2.90;;;;;;;;;;4969786;28;20042;-86
2022/09/26 08:43:08;;;;;;;3.85;2.60;;;;;;;;;;4988801;28;20061;-85
2022/09/26 08:49:08;;;;;;;4.45;2.47;;;;;;;;;;5005339;28;20484;-86
2022/09/26 08:51:39;;;;;;;4.63;2.50;;;;;;;;;;5005208;28;20068;-86
2022/09/26 08:54:05;;;;;;;5.90;2.42;;;;;;;;;;4974199;28;20030;-83
2022/09/26 08:56:31;;;;;;;;;;;;;;;;;;5001917;28;20026;-85
2022/09/26 08:58:57;;;;;;;5.03;2.40;;;;;;;;;;4987714;28;20001;-84
2022/09/26 09:01:28;;;;;;;6.85;2.70;;;;;;;;;;5000626;28;20399;-88
2022/09/26 09:04:13;;;;;;;3.92;2.35;;;;;;;;;;4978352;28;20103;-85
2022/09/26 09:06:39;;;;;;;6.13;2.50;;;;;;;;;;4988233;28;20038;-84
2022/09/26 09:09:04;;;;;;;;;;;;;;;;;;4986630;28;20014;-84
2022/09/26 09:11:56;;;;;;;4.40;2.20;;;;;;;;;;4996744;28;19940;-87
2022/09/26 09:14:40;;;;;;;3.08;2.38;;;;;;;;;;4998626;28;20058;-86
2022/09/26 09:17:47;;;;;;;4.25;2.80;;;;;;;;;;4959543;29;20043;-86
2022/09/26 09:20:38;;;;;;;4.35;2.50;;;;;;;;;;4953900;29;20058;-85
2022/09/26 09:23:23;;;;;;;3.40;2.15;;;;;;;;;;4984956;28;20050;-87
2022/09/26 09:25:49;;;;;;;7.15;3.00;;;;;;;;;;4995342;28;20038;-86
2022/09/26 09:28:26;;;;;;;5.25;2.40;;;;;;;;;;5036951;28;20087;-86
2022/09/26 09:30:59;;;;;;;3.75;1.90;;;;;;;;;;4987123;28;20042;-85
2022/09/26 09:33:44;;;;;;;5.53;2.25;;;;;;;;;;5027649;28;20045;-87
2022/09/26 09:36:18;;;;;;;5.72;2.58;;;;;;;;;;5008509;28;20045;-85
2022/09/26 09:39:06;;;;;;;4.63;1.80;;;;;;;;;;5000507;28;20021;-85
2022/09/26 09:41:59;;;;;;;4.18;1.73;;;;;;;;;;5002543;28;20037;-85
2022/09/26 09:44:40;;;;;;;3.42;1.70;;;;;;;;;;4999357;28;20034;-86
2022/09/26 09:47:15;;;;;;;3.50;2.05;;;;;;;;;;4982761;28;20069;-86
2022/09/26 09:49:42;;;;;;;3.92;1.80;;;;;;;;;;4994955;28;20493;-86
2022/09/26 09:52:18;;;;;;;5.60;2.88;;;;;;;;;;4994614;28;20061;-86
2022/09/26 09:54:55;;;;;;;6.95;1.92;;;;;;;;;;4996054;28;20054;-86
2022/09/26 09:57:47;;;;;;;3.20;1.90;;;;;;;;;;5010039;28;20060;-88
2022/09/26 10:00:16;;;;;;;3.33;1.92;;;;;;;;;;4981461;28;20196;-88
2022/09/26 10:03:04;;;;;;;5.85;1.58;;;;;;;;;;4998029;28;20114;-89
2022/09/26 10:05:38;;;;;;;4.55;2.05;;;;;;;;;;4990722;28;20042;-86
2022/09/26 10:08:10;;;;;;;2.97;1.55;;;;;;;;;;5007042;28;20061;-87
2022/09/26 10:11:22;;;;;;;3.42;1.50;;;;;;;;;;5022957;28;20106;-86
2022/09/26 10:14:12;;;;;;;6.07;1.70;;;;;;;;;;5023006;28;20120;-86
2022/09/26 10:17:10;;;;;;;3.70;1.60;;;;;;;;;;4973767;28;20110;-88
2022/09/26 10:19:54;;;;;;;4.57;1.70;;;;;;;;;;5028968;28;20033;-88
2022/09/26 10:22:28;;;;;;;4.38;1.65;;;;;;;;;;5003190;28;20044;-86
2022/09/26 10:24:59;;;;;;;2.90;1.50;;;;;;;;;;5039190;28;20042;-86
2022/09/26 10:27:34;;;;;;;3.65;1.50;;;;;;;;;;5001861;28;20042;-85
2022/09/26 10:30:00;;;;;;;4.60;2.13;;;;;;;;;;4992754;28;20042;-86
2022/09/26 10:32:28;;;;;;;3.97;1.73;;;;;;;;;;5020350;28;20033;-85
2022/09/26 10:35:19;;;;;;;3.15;1.90;;;;;;;;;;5017922;28;20037;-86
2022/09/26 10:38:05;;;;;;;4.28;1.77;;;;;;;;;;4986139;28;20490;-84
2022/09/26 10:40:44;;;;;;;3.60;1.90;;;;;;;;;;4976669;28;20066;-87
2022/09/26 10:43:22;;;;;;;3.63;1.63;;;;;;;;;;4998732;28;20068;-86
2022/09/26 10:45:53;;;;;;;3.42;1.80;;;;;;;;;;5002663;28;20049;-86
2022/09/26 10:49:01;;;;;;;4.68;1.85;;;;;;;;;;5010200;28;20046;-85
2022/09/26 10:51:41;;;;;;;2.92;1.70;;;;;;;;;;5024399;28;20038;-85
2022/09/26 10:54:15;;;;;;;3.67;1.65;;;;;;;;;;5006042;28;20038;-87
2022/09/26 10:56:44;;;;;;;4.43;1.67;;;;;;;;;;5015104;28;20034;-87
2022/09/26 10:59:12;;;;;;;3.80;1.80;;;;;;;;;;5002097;28;20026;-86
2022/09/26 11:01:43;;;;;;;5.70;1.77;;;;;;;;;;5001644;28;20094;-87
2022/09/26 11:07:25;;;;;;;4.80;1.75;;;;;;;;;;5014631;28;20053;-85
2022/09/26 11:10:11;;;;;;;5.70;1.83;;;;;;;;;;5012291;28;20029;-86
2022/09/26 11:12:56;;;;;;;2.80;1.60;;;;;;;;;;5016594;28;20042;-84
2022/09/26 11:15:22;;;;;;;4.55;1.80;;;;;;;;;;5017126;28;20113;-85
2022/09/26 11:18:14;;;;;;;4.47;2.15;;;;;;;;;;4982419;28;20442;-87
2022/09/26 11:21:14;;;;;;;4.13;1.65;;;;;;;;;;5034171;28;20104;-86
2022/09/26 11:24:01;;;;;;;5.40;1.85;;;;;;;;;;4979160;28;20038;-85
2022/09/26 11:26:36;;;;;;;6.03;2.03;;;;;;;;;;4995022;28;20105;-87
2022/09/26 11:29:46;;;;;;;7.40;1.88;;;;;;;;;;5016729;28;20050;-86
2022/09/26 11:32:25;;;;;;;5.28;1.80;;;;;;;;;;5009035;28;20046;-83
2022/09/26 11:35:24;;;;;;;5.80;1.60;;;;;;;;;;4989481;28;20046;-87
2022/09/26 11:37:51;;;;;;;4.15;1.98;;;;;;;;;;4995803;28;20045;-87
2022/09/26 11:40:20;;;;;;;5.38;1.75;;;;;;;;;;5021091;28;20030;-86
2022/09/26 11:42:59;;;;;;;4.97;1.90;;;;;;;;;;4989230;28;20038;-86
2022/09/26 11:45:44;;;;;;;6.10;2.30;;;;;;;;;;4991063;28;20034;-87
2022/09/26 11:48:44;;;;;;;5.38;1.45;;;;;;;;;;4997069;28;20042;-86
2022/09/26 11:51:36;;;;;;;4.20;1.60;;;;;;;;;;5023747;28;20037;-86
2022/09/26 11:54:22;;;;;;;4.30;1.63;;;;;;;;;;5011025;28;20053;-86
2022/09/26 11:56:51;;;;;;;4.30;1.80;;;;;;;;;;5024100;28;20139;-86
2022/09/26 11:59:30;;;;;;;5.13;1.70;;;;;;;;;;5011583;28;20033;-87
2022/09/26 12:02:02;;;;;;;8.23;1.55;;;;;;;;;;5002057;28;20065;-88
2022/09/26 12:04:57;;;;;;;2.42;1.40;;;;;;;;;;5011582;28;20047;-86
2022/09/26 12:07:27;;;;;;;2.95;1.30;;;;;;;;;;4945595;28;20044;-86
2022/09/26 12:09:56;;;;;;;3.13;1.25;;;;;;;;;;4997343;28;20037;-87
2022/09/26 12:12:24;;;;;;;3.83;1.40;;;;;;;;;;5012490;28;20033;-87
2022/09/26 12:15:13;;;;;;;2.63;1.42;;;;;;;;;;4988969;28;20042;-87
2022/09/26 12:18:11;;;;;;;4.78;1.90;;;;;;;;;;5001250;28;20568;-88
2022/09/26 12:20:40;;;;;;;4.22;1.30;;;;;;;;;;5004615;28;20038;-88
2022/09/26 12:23:09;;;;;;;3.00;1.20;;;;;;;;;;5015446;28;20030;-88
2022/09/26 12:25:56;;;;;;;3.03;1.20;;;;;;;;;;5003146;28;20034;-88
2022/09/26 12:28:34;;;;;;;3.45;1.60;;;;;;;;;;4994962;28;20193;-88
2022/09/26 12:31:07;;;;;;;3.17;1.55;;;;;;;;;;5009704;28;20038;-87
2022/09/26 12:33:38;;;;;;;7.47;2.33;;;;;;;;;;5008772;28;20006;-90
2022/09/26 12:36:07;;;;;;;6.50;2.53;;;;;;;;;;5028803;23;20051;-87
2022/09/26 12:38:48;;;;;;;4.97;2.55;;;;;;;;;;5032670;28;20052;-87
2022/09/26 12:41:43;;;;;;;3.47;1.60;;;;;;;;;;5049119;28;20037;-87
2022/09/26 12:44:30;;;;;;;2.55;1.60;;;;;;;;;;5029939;28;20053;-87
2022/09/26 12:47:03;;;;;;;4.85;1.90;;;;;;;;;;5033235;28;20105;-86
2022/09/26 12:49:40;;;;;;;3.33;1.45;;;;;;;;;;5037203;28;20034;-87
2022/09/26 12:52:14;;;;;;;;;;;;;;;;;;5036087;28;20048;-91
2022/09/26 12:55:15;;;;;;;3.30;2.00;;;;;;;;;;5011286;28;19985;-90
2022/09/26 12:57:50;;;;;;;4.03;1.83;;;;;;;;;;5009704;28;20034;-87
2022/09/26 13:00:19;;;;;;;3.72;1.80;;;;;;;;;;4959270;28;20125;-88
2022/09/26 13:02:45;;;;;;;3.22;1.88;;;;;;;;;;4991426;28;20034;-88
2022/09/26 13:05:14;;;;;;;4.85;1.80;;;;;;;;;;4994271;28;20043;-90
2022/09/26 13:07:43;;;;;;;5.38;1.50;;;;;;;;;;5025560;28;20038;-88
2022/09/26 13:10:10;;;;;;;6.22;2.00;;;;;;;;;;5012797;28;20037;-88
2022/09/26 13:12:41;;;;;;;2.95;1.42;;;;;;;;;;5166866;23;20303;-88
2022/09/26 13:15:13;;;;;;;3.83;1.70;;;;;;;;;;5019464;28;20513;-88
2022/09/26 13:17:40;;;;;;;4.05;1.70;;;;;;;;;;5004937;28;20033;-87
2022/09/26 13:20:17;;;;;;;2.75;1.75;;;;;;;;;;5020612;28;20044;-88
2022/09/26 13:23:04;;;;;;;3.65;1.77;;;;;;;;;;5008234;28;20026;-87
2022/09/26 13:25:31;;;;;;;4.50;1.80;;;;;;;;;;5012166;28;20030;-87
2022/09/26 13:28:05;;;;;;;2.80;1.88;;;;;;;;;;5021351;28;20021;-90
2022/09/26 13:30:34;;;;;;;4.22;1.60;;;;;;;;;;5032632;28;20029;-89
2022/09/26 13:33:00;;;;;;;3.15;1.65;;;;;;;;;;5007171;28;20026;-89
2022/09/26 13:35:26;;;;;;;2.70;1.60;;;;;;;;;;5029050;28;20037;-90
2022/09/26 13:37:52;;;;;;;3.75;2.40;;;;;;;;;;5010807;28;20417;-87
2022/09/26 13:40:21;;;;;;;;;;;;;;;;;;5023390;28;20044;-93
2022/09/26 13:42:49;;;;;;;3.05;1.90;;;;;;;;;;5005146;28;19920;-87
2022/09/26 13:45:18;;;;;;;3.72;1.80;;;;;;;;;;4996129;28;20034;-88
2022/09/26 13:50:13;;;;;;;4.25;1.60;;;;;;;;;;4971865;28;19926;-88
2022/09/26 13:52:39;;;;;;;;;;;;;;;;;;4986908;28;20582;-87
2022/09/26 13:55:13;;;;;;;5.10;1.73;;;;;;;;;;4984968;28;19914;-86
2022/09/26 13:57:50;;;;;;;3.53;1.50;;;;;;;;;;4987241;28;20035;-88
2022/09/26 14:00:22;;;;;;;2.50;1.50;;;;;;;;;;4971715;28;20035;-86
2022/09/26 14:03:14;;;;;;;3.28;1.60;;;;;;;;;;4977314;28;20038;-88
2022/09/26 14:05:39;;;;;;;4.50;1.48;;;;;;;;;;5045967;23;20548;-88
2022/09/26 14:10:53;;;;;;;3.63;1.60;;;;;;;;;;5029474;28;19913;-87
2022/09/26 14:13:31;;;;;;;3.75;1.35;;;;;;;;;;5011787;28;20037;-90
2022/09/26 14:15:58;;;;;;;2.83;1.67;;;;;;;;;;5027210;28;20057;-88
2022/09/26 14:18:43;;;;;;;4.70;1.60;;;;;;;;;;5019798;28;20029;-89
2022/09/26 14:21:12;;;;;;;3.80;1.80;;;;;;;;;;5021481;28;20033;-89
2022/09/26 14:23:37;;;;;;;8.80;2.08;;;;;;;;;;5032604;28;20032;-88
2022/09/26 14:26:03;;;;;;;;;;;;;;;;;;5017113;28;20033;-89
2022/09/26 14:28:31;;;;;;;2.97;1.50;;;;;;;;;;5017726;28;19910;-88
2022/09/26 14:31:26;;;;;;;3.67;1.60;;;;;;;;;;5011966;28;20033;-86
2022/09/26 14:34:13;;;;;;;3.72;1.50;;;;;;;;;;4976385;28;20043;-87
2022/09/26 14:36:38;;;;;;;5.13;1.33;;;;;;;;;;5009729;28;20033;-87
2022/09/26 14:39:04;;;;;;;;;;;;;;;;;;5020640;28;20037;-88
2022/09/26 14:41:30;;;;;;;4.03;1.60;;;;;;;;;;5016285;28;19913;-88
2022/09/26 14:44:03;;;;;;;5.70;1.52;;;;;;;;;;5013153;28;20037;-87
2022/09/26 14:46:31;;;;;;;5.45;1.70;;;;;;;;;;5014621;28;20043;-88
2022/09/26 14:49:02;;;;;;;4.13;1.90;;;;;;;;;;5019588;28;20060;-88
2022/09/26 14:51:28;;;;;;;6.03;2.08;;;;;;;;;;5013004;28;20037;-89
2022/09/26 14:54:02;;;;;;;4.50;1.67;;;;;;;;;;5011969;28;20029;-87
2022/09/26 14:56:40;;;;;;;8.13;2.50;;;;;;;;;;5024952;28;20036;-88
2022/09/26 14:59:17;;;;;;;8.60;2.42;;;;;;;;;;5094028;23;20110;-87
2022/09/26 15:01:43;;;;;;;6.55;2.28;;;;;;;;;;5082509;28;20043;-88
2022/09/26 15:04:11;;;;;;;;;;;;;;;;;;5051571;28;20029;-88
2022/09/26 15:06:55;;;;;;;10.32;2.50;;;;;;;;;;5029860;28;19967;-88
2022/09/26 15:09:22;;;;;;;7.20;2.53;;;;;;;;;;5013784;28;20030;-87
2022/09/26 15:11:59;;;;;;;8.05;2.33;;;;;;;;;;5007931;28;20029;-87
2022/09/26 15:14:29;;;;;;;4.07;2.10;;;;;;;;;;5008421;28;20046;-89
2022/09/26 15:16:54;;;;;;;6.30;2.60;;;;;;;;;;5027485;28;20081;-88
2022/09/26 15:19:34;;;;;;;7.93;3.00;;;;;;;;;;5082451;23;20021;-89
2022/09/26 15:22:19;;;;;;;6.55;2.80;;;;;;;;;;5023392;28;20035;-87
2022/09/26 15:24:44;;;;;;;;;;;;;;;;;;5022769;28;20045;-89
2022/09/26 15:27:28;;;;;;;7.40;2.90;;;;;;;;;;5032660;28;20284;-87
2022/09/26 15:29:56;;;;;;;6.38;2.75;;;;;;;;;;5010585;28;20104;-88
2022/09/26 15:32:25;;;;;;;9.05;4.05;;;;;;;;;;5054491;23;20366;-87
2022/09/26 15:34:51;;;;;;;6.70;4.65;;;;;;;;;;5014023;28;20068;-87
2022/09/26 15:37:17;;;;;;;;;;;;;;;;;;4986423;28;20030;-88
2022/09/26 15:39:43;;;;;;;5.93;2.53;;;;;;;;;;5010679;28;20004;-87
2022/09/26 15:44:57;;;;;;;6.32;2.70;;;;;;;;;;5002868;28;19893;-90
2022/09/26 15:47:29;;;;;;;8.82;3.42;;;;;;;;;;5019406;28;20076;-90
2022/09/26 15:50:02;;;;;;;6.50;3.80;;;;;;;;;;4999731;28;20065;-88
2022/09/26 15:52:27;;;;;;;10.45;4.18;;;;;;;;;;4982791;28;20033;-87
2022/09/26 15:54:56;;;;;;;;;;;;;;;;;;4982621;28;20026;-87